ロメ の空港の天気 - METARとTAF

ロメ空港 ( DXXX / LFW ) - トーゴ ロメ
飛行場実況気象(Metar)
観測時間10/19 18:00 GMT (10/19 18:00 UTC)
風向・風速南 4m/s
視程10km以上
天気現象
少しの雲 雲底高度 370m
少しの雲 雲底高度 610m
気温28℃
湿度84%
気圧1008hPa
METARDXXX 191800Z 19007KT 160V220 9999 FEW012 FEW020CB 28/25 Q1008 TEMPO TS
過去の天気等 Google飛行場航空写真 Wunderground天気予報

過去48時間のMETAR

飛行場予報(TAF)
発表時間: 10/19 17:00 GMT (10/19 17:00 UTC)
予報対象時間: 19日18時 GMT ~ 21日0時 GMT
風向・風速南南西 5m/s
視程10km以上
少しの雲 雲底高度 370m
19日18時 GMT ~ 19日21時 GMT に 確率 30% で一時的に
天気現象
全天の8割程度の雲 雲底高度 300m
少しの積乱雲 雲底高度 610m
19日23時 GMT ~ 20日1時 GMT に徐々に
風向・風速西 3m/s
20日8時 GMT ~ 20日10時 GMT に徐々に
風向・風速南南西 5m/s
TAF DXXX 191700Z 1918/2024 20010KT 9999 FEW012
PROB30 TEMPO 1918/1921 TS BKN010 FEW020CB
BECMG 1923/2001 26005KT
BECMG 2008/2010 20010KT